Etusivu
METAR-TAF:

METAR-TAF

Lentoasemat :

Alpnach, Sveitsi

Leveyspiiri: 46-56-19N, Pituuspiiri: 8-17-03E, korkeus merenpinnasta: 440 m

Tämänhetkinen sää

Tämä raportti tehtiin 29 minuuttia sitten, kello 19.20 UTC
Tuuli 1 kn eri suunnista
Lämpötila 17°C
Kosteus 82%
Ilmanpaine 1021 hPa
Näkyvyys 10 km tai enemmän
Hajonneita pilviä 6500 ft:n korkeudessa
Hajonneita pilviä 8800 ft:n korkeudessa

METAR: LSMA 031920Z AUTO VRB01KT 9999NDV BKN065 BKN088 17/14 Q1021 RMK

Aika: 21:49 (19:49 UTC)


TAF: puuttuu

Säähavainnot ja -ennusteet yli 4000 lentoasemalta (METAR- ja TAF-raportit).

Käytössä olevat sääasemat on merkitty karttaan keltaisilla ja punaisilla pisteillä.

Aseta hiiri pisteen päälle nähdäksesi sääaseman nimen.

Klikkaa sitten nähdäksesi säähavainnot ja -ennusteet.

Kartan vaihtaminen: klikkaa mustalla rastilla varustettuja vihreitä pisteitä, niin voit zoomata sisään; viivalla varustettua vihreää pistettä, niin voit zoomata ulos tai vihreitä nuolia, niin pääset viereisille kartoille.


METAR-TAF: